createdAt,value
2018-09-18T00:00:25.293Z,15.92
2018-09-18T00:02:55.402Z,15.94
2018-09-18T00:05:24.595Z,15.92
2018-09-18T00:07:53.870Z,15.89
2018-09-18T00:10:23.129Z,15.86
2018-09-18T00:12:52.369Z,15.85
2018-09-18T00:15:21.582Z,15.83
2018-09-18T00:17:50.736Z,15.83
2018-09-18T00:20:19.936Z,15.83
2018-09-18T00:22:49.181Z,15.77
2018-09-18T00:25:18.440Z,15.75
2018-09-18T00:27:47.566Z,15.73
2018-09-18T00:30:16.720Z,15.71
2018-09-18T00:32:45.917Z,15.70
2018-09-18T00:35:15.179Z,15.69
2018-09-18T00:37:44.438Z,15.67
2018-09-18T00:40:13.641Z,15.68
2018-09-18T00:42:42.874Z,15.67
2018-09-18T00:45:12.155Z,15.64
2018-09-18T00:47:41.677Z,15.57
2018-09-18T00:50:10.869Z,15.52
2018-09-18T00:52:40.143Z,15.46
2018-09-18T00:55:10.197Z,15.45
2018-09-18T00:57:39.420Z,15.42
2018-09-18T01:00:08.809Z,15.42
2018-09-18T01:02:37.997Z,15.41
2018-09-18T01:05:07.400Z,15.39
2018-09-18T01:07:36.696Z,15.34
2018-09-18T01:10:06.217Z,15.31
2018-09-18T01:12:35.431Z,15.27
2018-09-18T01:15:04.988Z,15.24
2018-09-18T01:17:34.184Z,15.20
2018-09-18T01:20:03.454Z,15.16
2018-09-18T01:22:32.620Z,15.14
2018-09-18T01:25:02.326Z,15.06
2018-09-18T01:27:31.531Z,14.99
2018-09-18T01:30:00.730Z,14.93
2018-09-18T01:32:29.925Z,14.90
2018-09-18T01:34:59.613Z,14.88
2018-09-18T01:37:29.161Z,14.88
2018-09-18T01:39:58.434Z,14.90
2018-09-18T01:42:27.629Z,14.89
2018-09-18T01:44:57.092Z,14.88
2018-09-18T01:47:27.060Z,14.89
2018-09-18T01:49:56.171Z,14.87
2018-09-18T01:52:25.614Z,14.84
2018-09-18T01:54:54.860Z,14.73
2018-09-18T01:57:24.388Z,14.70
2018-09-18T01:59:53.655Z,14.70
2018-09-18T02:02:23.277Z,14.68
2018-09-18T02:04:52.465Z,14.69
2018-09-18T02:07:21.678Z,14.71
2018-09-18T02:09:50.857Z,14.67
2018-09-18T02:12:19.994Z,14.66
2018-09-18T02:14:49.183Z,14.62
2018-09-18T02:17:18.388Z,14.61
2018-09-18T02:19:48.138Z,14.62
2018-09-18T02:22:17.331Z,14.60
2018-09-18T02:24:46.537Z,14.57
2018-09-18T02:27:15.787Z,14.56
2018-09-18T02:29:44.986Z,14.54
2018-09-18T02:32:14.154Z,14.54
2018-09-18T02:34:43.649Z,14.51
2018-09-18T02:37:12.868Z,14.49
2018-09-18T02:39:42.108Z,14.46
2018-09-18T02:42:11.229Z,14.40
2018-09-18T02:44:40.446Z,14.39
2018-09-18T02:47:09.692Z,14.38
2018-09-18T02:49:38.883Z,14.38
2018-09-18T02:52:08.390Z,14.37
2018-09-18T02:54:37.594Z,14.38
2018-09-18T02:57:06.487Z,14.39
2018-09-18T02:59:35.639Z,14.35
2018-09-18T03:02:05.288Z,14.35
2018-09-18T03:04:34.513Z,14.36
2018-09-18T03:07:03.757Z,14.32
2018-09-18T03:09:32.928Z,14.30
2018-09-18T03:12:02.196Z,14.24
2018-09-18T03:14:31.511Z,14.21
2018-09-18T03:17:00.724Z,14.17
2018-09-18T03:19:29.891Z,14.17
2018-09-18T03:21:59.061Z,14.16
2018-09-18T03:24:28.223Z,14.13
2018-09-18T03:26:57.371Z,14.13
2018-09-18T03:29:26.602Z,14.11
2018-09-18T03:31:55.878Z,14.10
2018-09-18T03:34:25.033Z,14.04
2018-09-18T03:36:54.220Z,13.92
2018-09-18T03:39:23.401Z,13.92
2018-09-18T03:41:52.528Z,13.94
2018-09-18T03:44:21.723Z,13.93
2018-09-18T03:46:50.892Z,13.94
2018-09-18T03:49:20.023Z,13.94
2018-09-18T03:51:49.263Z,13.93
2018-09-18T03:54:18.485Z,13.92
2018-09-18T03:56:47.723Z,13.92
2018-09-18T03:59:17.198Z,13.91
2018-09-18T04:01:46.367Z,13.92
2018-09-18T04:04:15.577Z,13.90
2018-09-18T04:06:45.478Z,13.90
2018-09-18T04:09:16.196Z,13.87
2018-09-18T04:11:45.362Z,13.87
2018-09-18T04:14:14.509Z,13.85
2018-09-18T04:16:43.703Z,13.84
2018-09-18T04:19:12.916Z,13.83
2018-09-18T04:21:43.306Z,13.82
2018-09-18T04:24:12.432Z,13.81
2018-09-18T04:26:42.021Z,13.82
2018-09-18T04:29:11.254Z,13.81
2018-09-18T04:31:41.430Z,13.80
2018-09-18T04:34:10.593Z,13.78
2018-09-18T04:36:39.757Z,13.81
2018-09-18T04:39:10.990Z,13.82
2018-09-18T04:41:40.191Z,13.83
2018-09-18T04:44:10.088Z,13.93
2018-09-18T04:46:39.264Z,13.92
2018-09-18T04:49:09.457Z,13.95
2018-09-18T04:51:38.575Z,13.97
2018-09-18T04:54:07.771Z,14.00
2018-09-18T04:56:39.269Z,14.04
2018-09-18T04:59:08.421Z,14.08
2018-09-18T05:01:38.812Z,14.08
2018-09-18T05:04:07.980Z,14.14
2018-09-18T05:06:37.151Z,14.12
2018-09-18T05:09:08.802Z,14.16
2018-09-18T05:11:38.076Z,14.19
2018-09-18T05:14:07.275Z,14.24
2018-09-18T05:16:36.445Z,14.31
2018-09-18T05:19:05.680Z,14.45
2018-09-18T05:21:34.906Z,14.53
2018-09-18T05:24:04.136Z,14.56
2018-09-18T05:26:33.648Z,14.63
2018-09-18T05:29:02.810Z,14.67
2018-09-18T05:31:31.953Z,14.73
2018-09-18T05:34:01.151Z,14.81
2018-09-18T05:36:30.565Z,14.88
2018-09-18T05:38:59.708Z,14.93
2018-09-18T05:41:28.974Z,15.00
2018-09-18T05:43:58.122Z,15.07
2018-09-18T05:46:27.261Z,15.14
2018-09-18T05:48:56.434Z,15.21
2018-09-18T05:51:25.548Z,15.26
2018-09-18T05:53:54.810Z,15.33
2018-09-18T05:56:23.965Z,15.38
2018-09-18T05:58:53.137Z,15.44
2018-09-18T06:01:22.361Z,15.52
2018-09-18T06:03:51.546Z,15.68
2018-09-18T06:06:20.706Z,15.70
2018-09-18T06:08:49.948Z,15.73
2018-09-18T06:11:19.122Z,15.74
2018-09-18T06:13:48.312Z,15.80
2018-09-18T06:16:17.497Z,15.85
2018-09-18T06:18:47.069Z,15.88
2018-09-18T06:21:16.176Z,15.92
2018-09-18T06:23:45.396Z,15.96
2018-09-18T06:26:14.624Z,16.03
2018-09-18T06:28:43.769Z,16.03
2018-09-18T06:31:12.993Z,16.10
2018-09-18T06:33:42.197Z,16.13
2018-09-18T06:36:11.452Z,16.24
2018-09-18T06:38:40.697Z,16.36
2018-09-18T06:41:09.817Z,16.49
2018-09-18T06:43:39.013Z,16.61
2018-09-18T06:46:08.488Z,16.80
2018-09-18T06:48:37.950Z,16.94
2018-09-18T06:51:07.312Z,17.05
2018-09-18T06:53:36.560Z,17.26
2018-09-18T06:56:05.824Z,17.31
2018-09-18T06:58:35.671Z,17.41
2018-09-18T07:01:04.976Z,17.44
2018-09-18T07:03:34.222Z,17.47
2018-09-18T07:06:03.569Z,17.52
2018-09-18T07:08:32.881Z,17.67
2018-09-18T07:11:02.303Z,17.74
2018-09-18T07:13:32.560Z,17.80
2018-09-18T07:16:01.765Z,17.88
2018-09-18T07:18:31.029Z,18.04
2018-09-18T07:21:00.641Z,18.26
2018-09-18T07:23:29.894Z,18.43
2018-09-18T07:25:59.179Z,18.51
2018-09-18T07:28:28.416Z,18.62
2018-09-18T07:30:57.845Z,18.75
2018-09-18T07:33:27.111Z,18.92
2018-09-18T07:35:56.423Z,18.95
2018-09-18T07:38:25.702Z,19.01
2018-09-18T07:40:55.052Z,19.22
2018-09-18T07:43:24.255Z,19.26
2018-09-18T07:45:53.479Z,19.42
2018-09-18T07:48:22.729Z,19.56
2018-09-18T07:50:52.233Z,19.78
2018-09-18T07:53:21.425Z,19.83
2018-09-18T07:55:51.224Z,19.91
2018-09-18T07:58:20.398Z,20.03
2018-09-18T08:00:50.069Z,19.94
2018-09-18T08:03:19.362Z,20.00
2018-09-18T08:05:49.060Z,19.97
2018-09-18T08:08:18.435Z,20.11
2018-09-18T08:10:47.820Z,20.08
2018-09-18T08:13:17.111Z,20.31
2018-09-18T08:15:46.362Z,20.38
2018-09-18T08:18:15.640Z,20.55
2018-09-18T08:20:44.895Z,20.88
2018-09-18T08:23:14.141Z,20.84
2018-09-18T08:25:43.423Z,21.03
2018-09-18T08:28:12.982Z,21.27
2018-09-18T08:30:42.281Z,21.36
2018-09-18T08:33:11.771Z,21.39
2018-09-18T08:35:40.945Z,21.33
2018-09-18T08:38:10.128Z,21.36
2018-09-18T08:40:39.333Z,21.50
2018-09-18T08:43:08.720Z,21.87
2018-09-18T08:45:37.858Z,21.93
2018-09-18T08:48:07.001Z,22.18
2018-09-18T08:50:36.340Z,21.95
2018-09-18T08:53:05.575Z,22.04
2018-09-18T08:55:34.887Z,22.39
2018-09-18T08:58:04.710Z,22.65
2018-09-18T09:00:33.870Z,22.71
2018-09-18T09:03:03.201Z,22.78
2018-09-18T09:05:32.409Z,22.69
2018-09-18T09:08:01.687Z,22.84
2018-09-18T09:10:30.884Z,23.10
2018-09-18T09:13:00.011Z,23.09
2018-09-18T09:15:29.210Z,23.19
2018-09-18T09:17:58.467Z,23.38
2018-09-18T09:20:27.624Z,23.65
2018-09-18T09:22:56.914Z,23.91
2018-09-18T09:25:26.081Z,24.06
2018-09-18T09:27:55.273Z,24.06
2018-09-18T09:30:24.423Z,24.21
2018-09-18T09:32:53.711Z,24.37
2018-09-18T09:35:22.878Z,24.44
2018-09-18T09:37:52.066Z,24.44
2018-09-18T09:40:21.285Z,24.44
2018-09-18T09:42:50.505Z,24.69
2018-09-18T09:45:19.780Z,24.86
2018-09-18T09:47:48.930Z,25.03
2018-09-18T09:50:18.120Z,25.02
2018-09-18T09:52:47.262Z,24.94
2018-09-18T09:55:16.477Z,24.86
2018-09-18T09:57:45.659Z,25.11
2018-09-18T10:00:20.009Z,25.38
2018-09-18T10:02:49.435Z,25.42
2018-09-18T10:05:19.361Z,25.60
2018-09-18T10:07:49.074Z,25.64
2018-09-18T10:10:20.544Z,25.87
2018-09-18T10:12:49.677Z,25.81
2018-09-18T10:15:19.125Z,26.00
2018-09-18T10:17:48.338Z,25.98
2018-09-18T10:20:17.509Z,26.07
2018-09-18T10:22:46.778Z,26.22
2018-09-18T10:25:15.946Z,26.28
2018-09-18T10:27:45.129Z,26.38
2018-09-18T10:30:14.292Z,26.54
2018-09-18T10:32:43.517Z,26.82
2018-09-18T10:35:12.695Z,26.55
2018-09-18T10:37:41.826Z,26.79
2018-09-18T10:40:11.173Z,26.88
2018-09-18T10:42:40.394Z,27.09
2018-09-18T10:45:10.041Z,27.17
2018-09-18T10:47:39.228Z,27.39
2018-09-18T10:50:08.400Z,27.43
2018-09-18T10:52:37.834Z,27.21
2018-09-18T10:55:07.210Z,27.38
2018-09-18T10:57:36.343Z,27.60
2018-09-18T11:00:06.596Z,27.46
2018-09-18T11:02:35.748Z,27.33
2018-09-18T11:05:05.055Z,27.48
2018-09-18T11:07:34.333Z,27.70
2018-09-18T11:10:03.587Z,27.84
2018-09-18T11:12:32.679Z,27.94
2018-09-18T11:15:02.467Z,27.95
2018-09-18T11:17:31.569Z,27.92
2018-09-18T11:20:00.879Z,27.54
2018-09-18T11:22:29.975Z,27.41
2018-09-18T11:24:59.175Z,27.60
2018-09-18T11:27:28.434Z,27.81
2018-09-18T11:29:58.346Z,28.26
2018-09-18T11:32:27.515Z,28.26
2018-09-18T11:34:56.771Z,28.50
2018-09-18T11:37:25.957Z,28.50
2018-09-18T11:39:55.161Z,28.55
2018-09-18T11:42:24.338Z,28.70
2018-09-18T11:44:53.502Z,28.54
2018-09-18T11:47:22.678Z,28.58
2018-09-18T11:49:51.881Z,28.68
2018-09-18T11:52:21.026Z,28.86
2018-09-18T11:54:50.439Z,29.00
2018-09-18T11:57:19.592Z,28.84
2018-09-18T11:59:48.813Z,28.66
2018-09-18T12:02:18.017Z,28.46
2018-09-18T12:04:47.266Z,28.67
2018-09-18T12:07:16.416Z,28.85
2018-09-18T12:09:45.690Z,28.92
2018-09-18T12:12:14.948Z,28.88
2018-09-18T12:14:44.183Z,28.92
2018-09-18T12:17:13.363Z,29.02
2018-09-18T12:19:42.537Z,29.29
2018-09-18T12:22:11.718Z,29.36
2018-09-18T12:24:40.816Z,29.28
2018-09-18T12:27:10.317Z,29.39
2018-09-18T12:29:39.534Z,29.32
2018-09-18T12:32:08.844Z,29.23
2018-09-18T12:34:38.422Z,29.30
2018-09-18T12:37:07.950Z,29.23
2018-09-18T12:39:37.095Z,29.12
2018-09-18T12:42:07.264Z,29.10
2018-09-18T12:44:36.297Z,29.08
2018-09-18T12:47:05.538Z,28.99
2018-09-18T12:49:34.930Z,28.99
2018-09-18T12:52:03.956Z,28.80
2018-09-18T12:54:33.143Z,28.87
2018-09-18T12:57:02.481Z,28.90
2018-09-18T12:59:31.566Z,29.04
2018-09-18T13:02:00.717Z,29.10
2018-09-18T13:04:29.283Z,28.79
2018-09-18T13:06:57.932Z,28.82
2018-09-18T13:09:26.563Z,28.79
2018-09-18T13:11:55.289Z,28.85
2018-09-18T13:14:23.884Z,28.82
2018-09-18T13:16:53.160Z,28.76
2018-09-18T13:19:22.409Z,28.82
2018-09-18T13:21:51.547Z,28.91
2018-09-18T13:24:20.699Z,28.95
2018-09-18T13:26:50.010Z,29.09
2018-09-18T13:29:19.178Z,29.08
2018-09-18T13:31:48.373Z,29.20
2018-09-18T13:34:17.949Z,29.26
2018-09-18T13:36:47.081Z,29.07
2018-09-18T13:39:16.221Z,29.13
2018-09-18T13:41:45.456Z,29.17
2018-09-18T13:44:14.654Z,29.10
2018-09-18T13:46:43.773Z,29.21
2018-09-18T13:49:13.026Z,29.18
2018-09-18T13:51:42.307Z,29.11
2018-09-18T13:54:11.476Z,29.03
2018-09-18T13:56:40.792Z,28.79
2018-09-18T13:59:09.906Z,28.79
2018-09-18T14:01:39.296Z,28.86
2018-09-18T14:04:08.450Z,28.86
2018-09-18T14:06:37.618Z,28.93
2018-09-18T14:09:08.543Z,28.80
2018-09-18T14:11:38.108Z,28.68
2018-09-18T14:14:07.435Z,28.66
2018-09-18T14:16:36.630Z,28.76
2018-09-18T14:19:05.882Z,28.86
2018-09-18T14:21:35.079Z,28.82
2018-09-18T14:24:04.249Z,28.74
2018-09-18T14:26:33.531Z,28.67
2018-09-18T14:29:02.516Z,28.70
2018-09-18T14:31:32.427Z,28.78
2018-09-18T14:34:01.586Z,28.78
2018-09-18T14:36:30.715Z,28.79
2018-09-18T14:38:59.976Z,28.79
2018-09-18T14:41:29.169Z,28.89
2018-09-18T14:43:58.372Z,28.85
2018-09-18T14:46:27.573Z,28.76
2018-09-18T14:48:56.866Z,28.62
2018-09-18T14:51:26.042Z,28.59
2018-09-18T14:53:55.829Z,28.60
2018-09-18T14:56:25.086Z,28.50
2018-09-18T14:58:54.232Z,28.38
2018-09-18T15:01:23.440Z,28.27
2018-09-18T15:03:52.968Z,28.21
2018-09-18T15:06:22.091Z,28.31
2018-09-18T15:08:51.271Z,28.36
2018-09-18T15:11:20.487Z,28.33
2018-09-18T15:13:49.733Z,28.31
2018-09-18T15:16:18.901Z,28.33
2018-09-18T15:18:48.165Z,28.36
2018-09-18T15:21:17.440Z,28.38
2018-09-18T15:23:46.566Z,28.36
2018-09-18T15:26:15.730Z,28.39
2018-09-18T15:28:44.889Z,28.27
2018-09-18T15:31:14.223Z,28.17
2018-09-18T15:33:43.778Z,28.19
2018-09-18T15:36:12.860Z,28.08
2018-09-18T15:38:42.877Z,28.00
2018-09-18T15:41:12.405Z,28.00
2018-09-18T15:43:42.060Z,27.94
2018-09-18T15:46:11.428Z,28.08
2018-09-18T15:48:40.978Z,27.94
2018-09-18T15:51:10.668Z,27.91
2018-09-18T15:53:40.366Z,27.87
2018-09-18T15:56:09.958Z,27.82
2018-09-18T15:58:40.677Z,27.69
2018-09-18T16:01:10.757Z,27.71
2018-09-18T16:03:40.589Z,27.62
2018-09-18T16:06:09.758Z,27.53
2018-09-18T16:08:40.141Z,27.30
2018-09-18T16:11:09.523Z,27.15
2018-09-18T16:13:38.689Z,27.25
2018-09-18T16:16:08.362Z,27.04
2018-09-18T16:18:37.885Z,26.92
2018-09-18T16:21:07.117Z,26.84
2018-09-18T16:23:36.777Z,26.73
2018-09-18T16:26:06.052Z,26.75
2018-09-18T16:28:35.438Z,26.63
2018-09-18T16:31:04.920Z,26.47
2018-09-18T16:33:34.090Z,26.41
2018-09-18T16:36:03.278Z,26.30
2018-09-18T16:38:32.934Z,26.18
2018-09-18T16:41:02.289Z,26.14
2018-09-18T16:43:31.392Z,26.06
2018-09-18T16:46:00.979Z,25.93
2018-09-18T16:48:30.291Z,25.84
2018-09-18T16:50:59.430Z,25.65
2018-09-18T16:53:28.986Z,25.45
2018-09-18T16:55:58.101Z,25.45
2018-09-18T16:58:27.706Z,25.08
2018-09-18T17:00:57.131Z,25.18
2018-09-18T17:03:26.301Z,25.04
2018-09-18T17:05:55.510Z,25.01
2018-09-18T17:08:24.940Z,25.18
2018-09-18T17:10:54.089Z,25.12
2018-09-18T17:13:23.373Z,24.92
2018-09-18T17:15:52.925Z,24.81
2018-09-18T17:18:22.127Z,24.78
2018-09-18T17:20:51.595Z,24.70
2018-09-18T17:23:21.111Z,24.66
2018-09-18T17:25:50.241Z,24.57
2018-09-18T17:28:19.524Z,24.58
2018-09-18T17:30:48.658Z,24.42
2018-09-18T17:33:18.112Z,24.37
2018-09-18T17:35:47.565Z,24.31
2018-09-18T17:38:16.800Z,24.31
2018-09-18T17:40:45.934Z,24.26
2018-09-18T17:43:15.180Z,24.21
2018-09-18T17:45:44.417Z,24.27
2018-09-18T17:48:13.615Z,24.23
2018-09-18T17:50:43.070Z,24.17
2018-09-18T17:53:12.340Z,24.11
2018-09-18T17:55:41.926Z,24.00
2018-09-18T17:58:11.195Z,24.00
2018-09-18T18:00:40.421Z,23.97
2018-09-18T18:03:09.721Z,23.91
2018-09-18T18:05:39.019Z,23.76
2018-09-18T18:08:08.428Z,23.73
2018-09-18T18:10:37.664Z,23.67
2018-09-18T18:13:07.837Z,23.67
2018-09-18T18:15:37.598Z,23.51
2018-09-18T18:18:06.798Z,23.39
2018-09-18T18:20:36.062Z,23.27
2018-09-18T18:23:05.870Z,23.11
2018-09-18T18:25:35.106Z,22.91
2018-09-18T18:28:04.377Z,22.78
2018-09-18T18:30:33.682Z,22.69
2018-09-18T18:33:02.942Z,22.53
2018-09-18T18:35:32.174Z,22.34
2018-09-18T18:38:01.665Z,22.23
2018-09-18T18:40:30.839Z,22.14
2018-09-18T18:43:00.017Z,22.07
2018-09-18T18:45:29.450Z,22.00
2018-09-18T18:47:58.836Z,21.91
2018-09-18T18:50:27.913Z,21.87
2018-09-18T18:52:57.362Z,21.79
2018-09-18T18:55:26.567Z,21.71
2018-09-18T18:57:55.699Z,21.64
2018-09-18T19:00:25.287Z,21.57
2018-09-18T19:02:54.524Z,21.51
2018-09-18T19:05:24.162Z,21.41
2018-09-18T19:07:53.365Z,21.25
2018-09-18T19:10:22.650Z,21.17
2018-09-18T19:12:51.836Z,21.13
2018-09-18T19:15:21.053Z,21.08
2018-09-18T19:17:50.263Z,21.06
2018-09-18T19:20:19.451Z,20.99
2018-09-18T19:22:49.093Z,20.95
2018-09-18T19:25:18.528Z,20.91
2018-09-18T19:27:47.730Z,20.89
2018-09-18T19:30:17.714Z,20.94
2018-09-18T19:32:46.908Z,20.95
2018-09-18T19:35:16.102Z,20.89
2018-09-18T19:37:45.456Z,20.87
2018-09-18T19:40:14.777Z,20.89
2018-09-18T19:42:43.930Z,20.99
2018-09-18T19:45:13.144Z,21.01
2018-09-18T19:47:42.294Z,20.90
2018-09-18T19:50:16.031Z,20.76
2018-09-18T19:52:46.648Z,20.67
2018-09-18T19:55:16.429Z,20.58
2018-09-18T19:57:46.291Z,20.44
2018-09-18T20:00:15.502Z,20.33
2018-09-18T20:02:44.654Z,20.21
2018-09-18T20:05:14.119Z,20.08
2018-09-18T20:07:43.237Z,19.97
2018-09-18T20:10:12.371Z,19.86
2018-09-18T20:12:41.626Z,19.79
2018-09-18T20:15:10.840Z,19.73
2018-09-18T20:17:40.000Z,19.65
2018-09-18T20:20:09.548Z,19.59
2018-09-18T20:22:38.693Z,19.58
2018-09-18T20:25:08.038Z,19.58
2018-09-18T20:27:37.261Z,19.54
2018-09-18T20:30:06.704Z,19.46
2018-09-18T20:32:35.872Z,19.40
2018-09-18T20:35:05.046Z,19.36
2018-09-18T20:37:34.294Z,19.25
2018-09-18T20:40:04.329Z,19.18
2018-09-18T20:42:33.661Z,19.12
2018-09-18T20:45:02.819Z,19.10
2018-09-18T20:47:31.978Z,19.07
2018-09-18T20:50:01.213Z,19.04
2018-09-18T20:52:30.407Z,19.01
2018-09-18T20:54:59.911Z,18.97
2018-09-18T20:57:29.226Z,18.89
2018-09-18T20:59:58.380Z,18.86
2018-09-18T21:02:29.148Z,18.77
2018-09-18T21:04:58.348Z,18.63
2018-09-18T21:07:27.530Z,18.60
2018-09-18T21:09:56.674Z,18.55
2018-09-18T21:12:25.962Z,18.52
2018-09-18T21:14:55.088Z,18.51
2018-09-18T21:17:24.303Z,18.51
2018-09-18T21:19:53.562Z,18.49
2018-09-18T21:22:22.713Z,18.48
2018-09-18T21:25:00.513Z,18.47
2018-09-18T21:27:29.669Z,18.45
2018-09-18T21:29:58.825Z,18.43
2018-09-18T21:32:28.047Z,18.39
2018-09-18T21:34:57.174Z,18.32
2018-09-18T21:37:26.367Z,18.25
2018-09-18T21:39:55.622Z,18.23
2018-09-18T21:42:24.888Z,18.18
2018-09-18T21:44:54.043Z,18.09
2018-09-18T21:47:23.338Z,18.03
2018-09-18T21:49:53.255Z,18.03
2018-09-18T21:52:22.382Z,17.98
2018-09-18T21:54:51.545Z,17.96
2018-09-18T21:57:20.736Z,17.97
2018-09-18T21:59:50.070Z,17.94
2018-09-18T22:02:19.263Z,17.92
2018-09-18T22:04:48.423Z,17.92
2018-09-18T22:07:17.585Z,17.91
2018-09-18T22:09:46.788Z,17.87
2018-09-18T22:12:16.086Z,17.83
2018-09-18T22:14:45.221Z,17.79
2018-09-18T22:17:14.408Z,17.75
2018-09-18T22:19:43.600Z,17.76
2018-09-18T22:22:12.836Z,17.71
2018-09-18T22:24:42.418Z,17.69
2018-09-18T22:27:11.574Z,17.69
2018-09-18T22:29:40.735Z,17.69
2018-09-18T22:32:09.925Z,17.70
2018-09-18T22:34:39.078Z,17.70
2018-09-18T22:37:08.808Z,17.74
2018-09-18T22:39:41.201Z,18.12
2018-09-18T22:42:10.397Z,18.13
2018-09-18T22:44:39.636Z,18.23
2018-09-18T22:47:09.106Z,18.35
2018-09-18T22:49:38.473Z,18.33
2018-09-18T22:52:07.725Z,18.34
2018-09-18T22:54:37.131Z,18.39
2018-09-18T22:57:06.681Z,18.43
2018-09-18T22:59:36.229Z,18.58
2018-09-18T23:02:05.561Z,18.63
2018-09-18T23:04:34.757Z,18.72
2018-09-18T23:07:03.942Z,18.71
2018-09-18T23:09:33.458Z,18.73
2018-09-18T23:12:02.739Z,18.76
2018-09-18T23:14:31.882Z,18.76
2018-09-18T23:17:01.139Z,18.78
2018-09-18T23:19:31.138Z,18.77
2018-09-18T23:22:00.292Z,18.81
2018-09-18T23:24:29.509Z,18.89
2018-09-18T23:26:58.853Z,18.89
2018-09-18T23:29:28.028Z,18.86
2018-09-18T23:31:57.240Z,18.90
2018-09-18T23:34:26.441Z,19.01
2018-09-18T23:36:55.754Z,19.08
2018-09-18T23:39:24.889Z,19.02
2018-09-18T23:41:54.071Z,19.05
2018-09-18T23:44:23.208Z,19.14
2018-09-18T23:46:52.377Z,19.10
2018-09-18T23:49:21.946Z,19.07
2018-09-18T23:51:51.265Z,19.04
2018-09-18T23:54:20.517Z,18.96
2018-09-18T23:56:49.754Z,18.94
2018-09-18T23:59:18.926Z,18.92
